Tallahassee Regional Airport
KTLH : rendu visible

Aérodrome :











RETROUVEZ-NOUS SUR...

 
LOGIN :

S'inscrire | Disclaimer

   EN    FR    IT 

 









Légende :    VFR   VFR Marginal   IFR   IFR Intensif   IFR Très Intensif
Visi : 
Plafond : 
>= 8 km
>= 3000ft
5 à 8 km
1000 à 3000 ft
1500m à 5 km
500 à 1000 ft
800 à 1500m
200 à 500 ft
< 800m
< 200 ft
Symboles :   Orages  Brouillard  Fortes neiges  Fortes précipitations  Vent > 20 kt






- Altitude de l'aérodrome : 81 ft
- Code IATA : TLH


KTLH - Tallahassee Regional

DERNIER METAR :
  • 290943Z AUTO 29004KT 10SM OVC010 22/21 A3006 RMK AO2 T02170206

METARs EXPIRÉS :
  • 290913Z AUTO 25004KT 9SM BKN006 OVC010 21/21 A3004 RMK AO2 CIG 003V008 T02110206
  • 290853Z AUTO 24006KT 7SM OVC002 21/21 A3004 RMK AO2 CIG 002V006 SLP171 T02110206 55005
  • 290753Z AUTO 21005KT 4SM BR OVC002 21/21 A3003 RMK AO2 SLP167 T02110206
  • 290720Z AUTO 00000KT 3SM BR OVC002 21/20 A3003 RMK AO2 T02060200
  • 290712Z AUTO 21003KT 1 3/4SM BR OVC002 21/20 A3003 RMK AO2 T02060200
  • 290653Z AUTO 00000KT 1/2SM FG VV002 20/19 A3004 RMK AO2 SLP170 T02000194
  • 290642Z AUTO 00000KT 1/2SM FG VV002 20/19 A3004 RMK AO2 T02000194

TAF KTLH
Valide du 29 à 09h jusqu'au 30 à 06h UTC


290836Z 2909/3006 VRB03KT 4SM BR BKN002
TEMPO 2909/2913 2SM BR
FM291300 22005KT 6SM BR BKN011
FM291600 21009KT P6SM SCT050



MET'MAP, la Météo Aéronautique d'un coup d'oeil ! - Copyright ORBIFLY Décembre 2007 - Disclaimer

ORBIFLY MET'MAP TEAM :

Programmation & Développement : Alexandra Zaïnal
Sur une idée originale de : Baudouin d'Aumeries
Assistance à la programmation : Marc-Olivier Méhu
Soutien technique & logistique : Manuel Goepfert

Contact : metmap@orbifly.com




SOURCES & CREDITS :

   NOAA       Earth
Advisory